Huvudsida
METAR-TAF:

METAR-TAF

Flygplatser :

Phu Quoc flygplats

Phu Quoc, Vietnam

latitud: 10-10-18N, longitud: 103-59-28E, höjd: 11 m

Aktuellt väderrapport

Denna rapport gjordes för 26 minuter sedan, klockan 12:30 UTC
Vind 10 kt från väst/sydväst
Temperatur 29°C
Fuktighet 79%
Tryck 1007 hPa
Sikt 10 km eller mer
Spridda moln på en höjd av 1500 ft

METAR: VVPQ 221230Z 24010KT 9999 SCT015 29/25 Q1007 NOSIG

Tid: 19:56 (12:56 UTC)

Väderprognos

Denna rapport gjordes för 1 timme och 56 minuter sedan, klockan 11:00 UTC
Prognos gäller från 22 kl. 12 UTC till 23 kl. 12 UTC
Vind 10 kt från väst/sydväst
Sikt 10 km eller mer
Spridda moln på en höjd av 1500 ft

TAF: VVPQ 221100Z 2212/2312 25010KT 9999 SCT015

Aktuella väderrapporter och prognoser från 4000 flygplatser (METAR- och TAF-rapporter).

De tillgängliga stationerna syns som gula och röda prickar på kartan.

För musen över prickarna för att se namnen på stationerna.

Klicka sedan för att få väderrapporter och prognoser.

För att ändra kartan: Klicka på de gröna knapparna med ett svart kors på för att zooma in; den gröna knappen med ett streck på för att zooma ut; eller på de gröna pilarna för angränsande kartor.


METAR-TAF: